• Join FlightAware (Why Join?)
  • Login
  • US Flag 
12:58PM EDT


 

Airport Tracker/Info


-or-


 

Live Flight TrackerFlight Track Log ✈ RPA4911 ✈ 05-Sep-2013 ✈ KALB - KEWR

Flight Track Log - Related Links

Times and Time Zones

All times are in EDT time to prevent confusion due to time zone crossing. See the RPA4911 flight status page for this flight to view local times or setup timezone preferences in your user account.

Time Position Orientation Groundspeed Altitude Reporting Facility
EDT Latitude Longitude Course Direction KTS MPH feet Rate Location/Type
06:06AM 42.7675 -73.8086 200° South 172 198 1,400  Level Boston Center
06:07AM 42.7917 -73.8283 329° Northwest 172 198 3,300 2,880 Climbing Boston Center
06:08AM 42.7797 -73.8828 253° West 189 217 6,200 2,880 Climbing Boston Center
06:09AM 42.4715 -73.8529 196° South  Level Estimated
06:09AM 42.7069 -73.9006 190° South 210 242 10,000  Level Boston Center
06:10AM 42.3790 -73.8697 197° South  Level Estimated
06:10AM 42.6456 -73.9172 191° South 209 241 12,500  Level Boston Center
06:11AM 42.3042 -73.9453 217° Southwest  Level FlightAware Approximate
06:11AM 42.5808 -73.9367 192° South 234 269 14,000  Level Boston Center
06:12AM 42.2113 -73.9585 200° South  Level Estimated
06:12AM 42.4978 -73.9603 192° South 306 352 14,000  Level Boston Center
06:13AM 42.4086 -73.9850 192° South 326 375 14,000  Level Boston Center
06:14AM 42.3186 -74.0103 192° South 331 381 14,000  Level Boston Center
06:15AM 42.2242 -74.0378 192° South 324 373 14,000  Level Boston Center
06:16AM 42.1433 -74.0739 198° South 315 362 14,100  Climbing Boston Center
06:18AM 42.0625 -74.1089 198° South 307 353 14,100 -60 Level Boston Center
06:19AM 41.9761 -74.1453 197° South 302 348 14,000 -60 Descending Boston Center
06:20AM 41.8964 -74.1806 198° South 302 348 14,000  Level Boston Center
06:21AM 41.8172 -74.2150 198° South 299 344 14,000 -720 Level Boston Center
06:22AM 41.7356 -74.2500 198° South 309 356 12,600 -1,440 Descending Boston Center
06:23AM 41.6553 -74.2853 198° South 304 350 11,100 -1,500 Descending Boston Center
06:24AM 41.5781 -74.3189 198° South 272 313 9,700 -1,380 Descending Boston Center
06:25AM 41.5081 -74.3475 197° South 266 306 8,400 -1,260 Descending Boston Center
06:26AM 41.4403 -74.3792 199° South 260 299 7,200 -720 Descending Boston Center
06:27AM 41.3753 -74.4053 197° South 247 284 7,000 -120 Descending Boston Center
06:28AM 41.3003 -74.3914 172° South 272 313 7,000 -600 Level Boston Center
06:29AM 41.2167 -74.3333 152° Southeast 283 326 5,800 -900 Descending New York TRACON
06:30AM 41.1500 -74.2833 151° Southeast 284 327 5,100 -480 Descending New York TRACON
06:31AM 41.0833 -74.2333 151° Southeast 283 326 4,900 -660 Descending New York TRACON
06:32AM 41.0167 -74.1833 150° Southeast 276 318 3,900 -960 Descending New York TRACON
06:33AM 40.9667 -74.1500 153° Southeast 279 321 3,100 -480 Descending New York TRACON
06:34AM 40.9000 -74.1000 150° Southeast 238 274 3,100  Level New York TRACON
06:35AM 40.8333 -74.0667 159° South 216 249 3,100 -480 Level New York TRACON
06:36AM 40.7833 -74.1000 207° Southwest 196 226 2,100 -1,020 Descending New York TRACON
06:37AM 40.7500 -74.1333 217° Southwest 173 199 1,200 -900 Descending New York TRACON
06:38AM 40.7167 -74.1500 201° Southwest 125 144 500 -780 Descending New York TRACON